createdAt,value
2023-03-16T00:00:29.741Z,100354.50
2023-03-16T00:03:44.313Z,100354.19
2023-03-16T00:06:53.326Z,100359.13
2023-03-16T00:10:09.349Z,100363.09
2023-03-16T00:13:11.547Z,100366.19
2023-03-16T00:16:26.446Z,100377.28
2023-03-16T00:19:41.309Z,100381.47
2023-03-16T00:22:50.139Z,100377.16
2023-03-16T00:26:07.323Z,100385.53
2023-03-16T00:29:09.318Z,100383.66
2023-03-16T00:32:27.381Z,100390.66
2023-03-16T00:35:29.471Z,100392.28
2023-03-16T00:38:49.341Z,100389.06
2023-03-16T00:41:58.322Z,100393.19
2023-03-16T00:45:14.327Z,100365.28
2023-03-16T00:48:29.317Z,100394.91
2023-03-16T00:51:31.765Z,100397.28
2023-03-16T00:54:47.297Z,100395.63
2023-03-16T00:57:49.410Z,100402.97
2023-03-16T01:01:11.344Z,100413.03
2023-03-16T01:04:20.287Z,100401.06
2023-03-16T01:07:35.308Z,100411.34
2023-03-16T01:10:43.985Z,100407.34
2023-03-16T01:13:54.321Z,100407.03
2023-03-16T01:17:12.283Z,100409.09
2023-03-16T01:20:21.297Z,100409.87
2023-03-16T01:23:30.823Z,100403.22
2023-03-16T01:26:45.311Z,100412.22
2023-03-16T01:29:54.033Z,100394.56
2023-03-16T01:33:02.417Z,100414.78
2023-03-16T01:36:19.159Z,100417.91
2023-03-16T01:39:34.322Z,100413.66
2023-03-16T01:42:59.397Z,100411.00
2023-03-16T01:46:20.360Z,100415.25
2023-03-16T01:49:39.310Z,100413.66
2023-03-16T01:52:41.462Z,100417.84
2023-03-16T01:55:57.314Z,100416.69
2023-03-16T01:59:18.324Z,100416.37
2023-03-16T02:02:32.295Z,100416.22
2023-03-16T02:06:01.318Z,100416.37
2023-03-16T02:09:03.619Z,100439.53
2023-03-16T02:12:19.343Z,100438.47
2023-03-16T02:15:28.370Z,100421.34
2023-03-16T02:18:37.172Z,100446.91
2023-03-16T02:22:05.305Z,100453.47
2023-03-16T02:25:23.288Z,100463.72
2023-03-16T02:29:03.889Z,100440.44
2023-03-16T02:32:13.273Z,100463.87
2023-03-16T02:35:29.308Z,100463.56
2023-03-16T02:38:38.293Z,100467.63
2023-03-16T02:41:53.634Z,100481.75
2023-03-16T02:45:08.342Z,100484.09
2023-03-16T02:48:21.307Z,100486.97
2023-03-16T02:51:30.629Z,100487.44
2023-03-16T02:54:40.322Z,100489.75
2023-03-16T02:57:49.257Z,100501.84
2023-03-16T03:01:05.283Z,100503.12
2023-03-16T03:04:15.304Z,100495.56
2023-03-16T03:07:24.018Z,100500.59
2023-03-16T03:10:32.313Z,100506.59
2023-03-16T03:13:47.291Z,100506.28
2023-03-16T03:16:56.107Z,100517.31
2023-03-16T03:20:12.298Z,100519.16
2023-03-16T03:23:14.394Z,100522.06
2023-03-16T03:26:29.298Z,100524.59
2023-03-16T03:29:39.326Z,100483.06
2023-03-16T03:32:55.402Z,100536.69
2023-03-16T03:36:05.343Z,100541.97
2023-03-16T03:39:20.316Z,100545.19
2023-03-16T03:42:35.631Z,100530.00
2023-03-16T03:45:44.365Z,100545.66
2023-03-16T03:48:59.298Z,100553.03
2023-03-16T03:52:14.298Z,100545.31
2023-03-16T03:55:23.306Z,100557.03
2023-03-16T03:58:32.056Z,100562.47
2023-03-16T04:01:41.297Z,100562.59
2023-03-16T04:04:57.315Z,100562.13
2023-03-16T04:08:13.338Z,100550.72
2023-03-16T04:11:28.297Z,100580.16
2023-03-16T04:14:30.815Z,100564.06
2023-03-16T04:17:52.293Z,100578.69
2023-03-16T04:21:01.292Z,100577.41
2023-03-16T04:24:17.309Z,100589.03
2023-03-16T04:27:32.293Z,100593.28
2023-03-16T04:30:41.308Z,100598.00
2023-03-16T04:33:57.308Z,100597.41
2023-03-16T04:37:06.034Z,100599.25
2023-03-16T04:40:15.316Z,100599.94
2023-03-16T04:43:24.041Z,100603.97
2023-03-16T04:46:39.378Z,100582.56
2023-03-16T04:49:49.283Z,100602.81
2023-03-16T04:53:04.331Z,100608.00
2023-03-16T04:56:13.053Z,100607.66
2023-03-16T04:59:21.321Z,100613.09
2023-03-16T05:02:29.959Z,100612.50
2023-03-16T05:05:38.320Z,100623.44
2023-03-16T05:08:53.291Z,100628.06
2023-03-16T05:12:01.904Z,100607.31
2023-03-16T05:15:11.282Z,100630.00
2023-03-16T05:18:23.053Z,100611.59
2023-03-16T05:21:38.286Z,100637.97
2023-03-16T05:24:54.292Z,100647.88
2023-03-16T05:28:03.042Z,100648.69
2023-03-16T05:31:12.307Z,100648.59
2023-03-16T05:34:20.932Z,100644.69
2023-03-16T05:37:29.271Z,100654.78
2023-03-16T05:40:44.595Z,100654.22
2023-03-16T05:43:54.281Z,100658.03
2023-03-16T05:47:03.006Z,100656.19
2023-03-16T05:50:21.286Z,100652.84
2023-03-16T05:53:30.365Z,100662.75
2023-03-16T05:56:39.018Z,100651.34
2023-03-16T05:59:54.284Z,100668.91
2023-03-16T06:02:56.428Z,100675.38
2023-03-16T06:06:11.303Z,100676.53
2023-03-16T06:09:20.305Z,100680.25
2023-03-16T06:12:29.088Z,100692.31
2023-03-16T06:15:44.347Z,100690.34
2023-03-16T06:19:00.299Z,100690.94
2023-03-16T06:22:09.120Z,100695.31
2023-03-16T06:25:19.299Z,100698.28
2023-03-16T06:28:34.442Z,100698.03
2023-03-16T06:31:42.970Z,100702.72
2023-03-16T06:34:51.266Z,100709.72
2023-03-16T06:38:07.302Z,100716.72
2023-03-16T06:41:29.293Z,100729.72
2023-03-16T06:44:31.609Z,100720.62
2023-03-16T06:47:46.270Z,100732.78
2023-03-16T06:50:48.329Z,100739.06
2023-03-16T06:54:05.505Z,100740.75
2023-03-16T06:57:17.382Z,100739.53
2023-03-16T07:00:34.643Z,100743.09
2023-03-16T07:03:43.969Z,100750.78
2023-03-16T07:07:00.842Z,100748.34
2023-03-16T07:10:10.588Z,100754.06
2023-03-16T07:13:19.930Z,100761.88
2023-03-16T07:16:29.655Z,100749.53
2023-03-16T07:19:38.711Z,100766.66
2023-03-16T07:22:49.679Z,100770.34
2023-03-16T07:26:05.483Z,100764.69
2023-03-16T07:29:15.016Z,100771.31
2023-03-16T07:32:31.606Z,100763.44
2023-03-16T07:35:47.577Z,100782.75
2023-03-16T07:38:56.776Z,100779.03
2023-03-16T07:50:07.286Z,100789.03
2023-03-16T07:53:23.263Z,100786.06
2023-03-16T07:56:48.429Z,100800.19
2023-03-16T07:59:58.082Z,100794.09
2023-03-16T08:03:07.335Z,100785.16
2023-03-16T08:06:16.254Z,100798.34
2023-03-16T08:09:25.282Z,100806.56
2023-03-16T08:12:45.288Z,100792.72
2023-03-16T08:15:53.245Z,100802.87
2023-03-16T08:19:08.278Z,100814.09
2023-03-16T08:22:17.311Z,100813.53
2023-03-16T08:25:51.283Z,100813.63
2023-03-16T08:29:06.344Z,100819.00
2023-03-16T08:32:08.880Z,100821.16
2023-03-16T08:35:31.299Z,100823.53
2023-03-16T08:38:59.914Z,100817.63
2023-03-16T08:42:21.316Z,100815.78
2023-03-16T08:45:36.287Z,100817.28
2023-03-16T08:48:38.360Z,100818.34
2023-03-16T08:51:53.263Z,100824.66
2023-03-16T09:03:04.344Z,100815.81
2023-03-16T09:06:26.785Z,100827.34
2023-03-16T09:10:25.969Z,100818.25
2023-03-16T09:13:52.407Z,100832.31
2023-03-16T09:17:23.867Z,100824.72
2023-03-16T09:20:38.873Z,100839.31
2023-03-16T09:24:06.728Z,100832.53
2023-03-16T09:27:28.670Z,100842.88
2023-03-16T09:30:32.098Z,100833.78
2023-03-16T09:33:48.951Z,100835.44
2023-03-16T09:36:58.422Z,100835.00
2023-03-16T09:40:16.245Z,100836.28
2023-03-16T09:43:53.197Z,100843.22
2023-03-16T09:47:06.465Z,100847.03
2023-03-16T09:50:47.351Z,100840.06
2023-03-16T09:55:16.030Z,100846.78
2023-03-16T09:58:48.367Z,100848.25
2023-03-16T10:02:38.002Z,100848.34
2023-03-16T10:06:00.710Z,100855.09
2023-03-16T10:09:21.812Z,100852.47
2023-03-16T10:12:35.451Z,100858.38
2023-03-16T10:15:47.438Z,100859.78
2023-03-16T10:19:04.437Z,100862.09
2023-03-16T10:22:32.681Z,100858.06
2023-03-16T10:25:49.873Z,100849.09
2023-03-16T10:29:05.420Z,100868.22
2023-03-16T10:32:19.376Z,100853.06
2023-03-16T10:36:00.186Z,100864.63
2023-03-16T10:39:24.559Z,100864.06
2023-03-16T10:42:42.091Z,100861.38
2023-03-16T10:46:09.947Z,100864.09
2023-03-16T10:49:43.612Z,100863.06
2023-03-16T10:52:54.799Z,100840.66
2023-03-16T10:56:10.159Z,100847.78
2023-03-16T10:59:38.405Z,100851.19
2023-03-16T11:02:50.186Z,100855.13
2023-03-16T11:06:11.545Z,100861.13
2023-03-16T11:09:35.221Z,100854.47
2023-03-16T11:12:54.618Z,100851.03
2023-03-16T11:16:00.852Z,100847.72
2023-03-16T11:19:35.331Z,100830.47
2023-03-16T11:22:52.360Z,100854.66
2023-03-16T11:25:59.125Z,100844.03
2023-03-16T11:29:37.316Z,100842.69
2023-03-16T11:32:51.539Z,100838.06
2023-03-16T11:36:40.319Z,100836.97
2023-03-16T11:40:04.936Z,100834.50
2023-03-16T11:43:49.171Z,100830.34
2023-03-16T11:47:37.330Z,100827.44
2023-03-16T11:51:21.390Z,100832.44
2023-03-16T11:54:57.288Z,100829.06
2023-03-16T11:58:17.888Z,100833.72
2023-03-16T12:01:36.298Z,100828.19
2023-03-16T12:09:18.323Z,100829.66
2023-03-16T12:12:51.328Z,100822.12
2023-03-16T12:16:14.373Z,100811.91
2023-03-16T12:19:40.301Z,100812.56
2023-03-16T12:22:55.427Z,100808.81
2023-03-16T12:26:11.298Z,100807.13
2023-03-16T12:29:35.115Z,100805.50
2023-03-16T12:33:29.291Z,100815.84
2023-03-16T12:36:46.677Z,100813.56
2023-03-16T12:40:38.276Z,100807.44
2023-03-16T12:44:02.367Z,100806.78
2023-03-16T12:47:38.388Z,100802.50
2023-03-16T12:50:53.047Z,100802.53
2023-03-16T12:54:09.354Z,100799.94
2023-03-16T12:57:25.903Z,100792.06
2023-03-16T13:00:42.452Z,100806.78
2023-03-16T13:04:00.933Z,100795.34
2023-03-16T13:07:30.360Z,100794.19
2023-03-16T13:10:46.310Z,100800.28
2023-03-16T13:13:49.667Z,100801.84
2023-03-16T13:17:31.373Z,100805.19
2023-03-16T13:21:08.809Z,100802.03
2023-03-16T13:24:20.429Z,100800.41
2023-03-16T13:27:40.443Z,100798.50
2023-03-16T13:31:07.128Z,100797.56
2023-03-16T13:34:37.541Z,100793.91
2023-03-16T13:37:47.538Z,100796.56
2023-03-16T13:40:59.372Z,100798.66
2023-03-16T13:44:22.329Z,100797.88
2023-03-16T13:47:34.356Z,100794.28
2023-03-16T13:50:43.390Z,100798.53
2023-03-16T14:01:45.309Z,100808.91
2023-03-16T14:04:54.045Z,100807.09
2023-03-16T14:08:09.342Z,100803.16
2023-03-16T14:11:18.304Z,100806.06
2023-03-16T14:15:02.947Z,100791.94
2023-03-16T14:18:22.320Z,100796.72
2023-03-16T14:21:40.340Z,100804.88
2023-03-16T14:24:44.260Z,100795.81
2023-03-16T14:28:06.328Z,100801.88
2023-03-16T14:31:13.544Z,100810.66
2023-03-16T14:34:43.332Z,100808.56
2023-03-16T14:37:52.407Z,100805.47
2023-03-16T14:41:28.756Z,100811.81
2023-03-16T14:44:45.352Z,100816.19
2023-03-16T14:47:54.056Z,100816.16
2023-03-16T14:51:10.327Z,100812.94
2023-03-16T14:54:14.427Z,100818.38
2023-03-16T14:57:29.333Z,100820.31
2023-03-16T15:00:52.710Z,100820.56
2023-03-16T15:04:02.328Z,100827.25
2023-03-16T15:07:23.516Z,100827.03
2023-03-16T15:10:41.327Z,100815.03
2023-03-16T15:13:50.620Z,100823.47
2023-03-16T15:17:05.328Z,100826.94
2023-03-16T15:20:19.341Z,100824.88
2023-03-16T15:23:28.320Z,100833.75
2023-03-16T15:26:36.946Z,100828.34
2023-03-16T15:29:45.316Z,100826.69
2023-03-16T15:33:01.472Z,100839.59
2023-03-16T15:36:27.311Z,100834.03
2023-03-16T15:39:36.074Z,100843.97
2023-03-16T15:42:58.310Z,100851.00
2023-03-16T15:46:00.261Z,100860.16
2023-03-16T15:49:15.370Z,100858.53
2023-03-16T15:52:52.347Z,100866.09
2023-03-16T15:56:05.339Z,100866.09
2023-03-16T15:59:16.020Z,100868.22
2023-03-16T16:02:38.327Z,100869.06
2023-03-16T16:05:40.862Z,100865.31
2023-03-16T16:08:55.315Z,100868.81
2023-03-16T16:12:04.323Z,100878.44
2023-03-16T16:15:27.599Z,100878.97
2023-03-16T16:18:42.546Z,100877.63
2023-03-16T16:21:51.662Z,100886.72
2023-03-16T16:24:59.969Z,100882.69
2023-03-16T16:28:08.336Z,100890.16
2023-03-16T16:31:17.314Z,100899.00
2023-03-16T16:34:33.379Z,100906.22
2023-03-16T16:37:42.620Z,100905.94
2023-03-16T16:41:13.281Z,100909.94
2023-03-16T16:44:38.001Z,100912.63
2023-03-16T16:47:40.134Z,100927.06
2023-03-16T16:50:56.306Z,100917.91
2023-03-16T16:54:15.051Z,100933.47
2023-03-16T16:57:26.693Z,100937.16
2023-03-16T17:00:41.345Z,100920.56
2023-03-16T17:03:43.391Z,100943.03
2023-03-16T17:07:00.704Z,100944.09
2023-03-16T17:10:21.367Z,100951.28
2023-03-16T17:13:39.001Z,100954.19
2023-03-16T17:16:55.396Z,100960.00
2023-03-16T17:20:06.860Z,100957.56
2023-03-16T17:23:41.339Z,100963.16
2023-03-16T17:27:02.728Z,100957.78
2023-03-16T17:30:24.163Z,100962.03
2023-03-16T17:33:35.341Z,100963.56
2023-03-16T17:36:51.341Z,100977.44
2023-03-16T17:40:00.548Z,100978.22
2023-03-16T17:43:25.785Z,100972.31
2023-03-16T17:46:40.849Z,100963.91
2023-03-16T17:49:51.823Z,100983.72
2023-03-16T17:53:01.767Z,100984.94
2023-03-16T17:56:16.350Z,100983.56
2023-03-16T17:59:32.336Z,100991.97
2023-03-16T18:03:13.434Z,100988.12
2023-03-16T18:06:25.528Z,100993.84
2023-03-16T18:09:40.573Z,100992.44
2023-03-16T18:12:56.458Z,100995.41
2023-03-16T18:16:06.958Z,101001.75
2023-03-16T18:19:31.804Z,101010.41
2023-03-16T18:22:37.408Z,101011.34
2023-03-16T18:25:54.771Z,101016.25
2023-03-16T18:29:04.827Z,101021.06
2023-03-16T18:32:27.346Z,101024.63
2023-03-16T18:35:43.972Z,101022.00
2023-03-16T18:39:01.742Z,101036.94
2023-03-16T18:42:22.991Z,101038.06
2023-03-16T18:45:39.788Z,101061.28
2023-03-16T18:48:43.284Z,101060.94
2023-03-16T18:52:02.553Z,101073.53
2023-03-16T18:55:25.497Z,101069.91
2023-03-16T18:58:34.896Z,101067.59
2023-03-16T19:01:52.989Z,101084.37
2023-03-16T19:05:07.801Z,101094.63
2023-03-16T19:08:23.843Z,101093.91
2023-03-16T19:11:35.050Z,101087.13
2023-03-16T19:14:44.884Z,101101.28
2023-03-16T19:18:01.876Z,101104.97
2023-03-16T19:21:05.267Z,101107.87
2023-03-16T19:24:54.896Z,101107.31
2023-03-16T19:27:59.331Z,101118.91
2023-03-16T19:31:30.912Z,101121.00
2023-03-16T19:34:40.992Z,101126.94
2023-03-16T19:37:57.784Z,101126.97
2023-03-16T19:41:07.836Z,101136.25
2023-03-16T19:44:25.396Z,101132.22
2023-03-16T19:47:37.318Z,101148.31
2023-03-16T19:50:49.254Z,101149.37
2023-03-16T19:54:06.772Z,101155.16
2023-03-16T19:57:24.791Z,101154.00
2023-03-16T20:00:42.253Z,101158.53
2023-03-16T20:03:53.406Z,101154.97
2023-03-16T20:07:03.729Z,101161.47
2023-03-16T20:10:29.816Z,101162.28
2023-03-16T20:13:42.570Z,101169.44
2023-03-16T20:16:51.995Z,101172.09
2023-03-16T20:20:36.678Z,101161.34
2023-03-16T20:23:45.761Z,101147.81
2023-03-16T20:26:55.589Z,101175.47
2023-03-16T20:30:20.765Z,101176.41
2023-03-16T20:33:30.169Z,101181.72
2023-03-16T20:36:45.760Z,101188.63
2023-03-16T20:40:03.837Z,101191.28
2023-03-16T20:43:23.977Z,101188.28
2023-03-16T20:46:40.349Z,101192.06
2023-03-16T20:49:44.057Z,101187.31
2023-03-16T20:53:00.828Z,101191.25
2023-03-16T20:56:25.830Z,101177.38
2023-03-16T20:59:29.144Z,101195.03
2023-03-16T21:02:45.434Z,101193.97
2023-03-16T21:06:02.811Z,101196.16
2023-03-16T21:09:11.351Z,101180.41
2023-03-16T21:12:48.359Z,101193.13
2023-03-16T21:16:06.370Z,101196.31
2023-03-16T21:19:27.716Z,101197.91
2023-03-16T21:22:36.375Z,101198.84
2023-03-16T21:25:55.367Z,101201.03
2023-03-16T21:29:01.497Z,101208.47
2023-03-16T21:32:27.378Z,101219.97
2023-03-16T21:35:43.348Z,101224.91
2023-03-16T21:38:53.648Z,101227.41
2023-03-16T21:42:08.341Z,101222.94
2023-03-16T21:45:30.644Z,101229.31
2023-03-16T21:48:48.340Z,101223.87
2023-03-16T21:51:57.312Z,101226.75
2023-03-16T21:55:06.565Z,101231.53
2023-03-16T21:58:16.333Z,101225.50
2023-03-16T22:01:40.973Z,101227.56
2023-03-16T22:04:51.112Z,101225.62
2023-03-16T22:08:08.330Z,101228.75
2023-03-16T22:11:26.321Z,101228.97
2023-03-16T22:14:28.397Z,101228.66
2023-03-16T22:17:43.328Z,101225.25
2023-03-16T22:20:45.493Z,101233.50
2023-03-16T22:24:02.330Z,101244.09
2023-03-16T22:27:24.334Z,101233.09
2023-03-16T22:30:28.260Z,101223.72
2023-03-16T22:33:44.345Z,101235.19
2023-03-16T22:37:00.337Z,101238.88
2023-03-16T22:40:09.334Z,101232.78
2023-03-16T22:43:38.313Z,101235.91
2023-03-16T22:46:47.355Z,101227.59
2023-03-16T22:50:02.358Z,101217.53
2023-03-16T22:53:14.351Z,101220.00
2023-03-16T22:56:30.295Z,101231.41
2023-03-16T22:59:45.365Z,101241.56
2023-03-16T23:02:50.314Z,101243.03
2023-03-16T23:06:05.669Z,101247.72
2023-03-16T23:09:23.394Z,101251.00
2023-03-16T23:12:26.989Z,101243.94
2023-03-16T23:15:43.337Z,101231.78
2023-03-16T23:18:52.330Z,101245.41
2023-03-16T23:22:06.609Z,101237.34
2023-03-16T23:25:21.300Z,101258.47
2023-03-16T23:28:24.210Z,101255.22
2023-03-16T23:31:40.309Z,101262.94
2023-03-16T23:34:49.336Z,101265.41
2023-03-16T23:38:05.320Z,101260.53
2023-03-16T23:41:31.310Z,101268.88
2023-03-16T23:44:46.346Z,101264.22
2023-03-16T23:48:04.316Z,101264.25
2023-03-16T23:51:07.762Z,101263.63
2023-03-16T23:54:29.395Z,101265.88
2023-03-16T23:57:38.059Z,101263.84
